Weather Data

Pearl Creek Farm: 8878 N Farm Road 75, Walnut Grove MO 65770

<== Previous Day (Sunday 17 Aug 2008) | Next Day (Tuesday 19 Aug 2008) ==>

Summary Precipitation Data For Monday 18 August 2008

ElementValueUnits
Precipitation0"
Notes(none)
SourceSpringfield-Branson National Airport (SGF)

Summary Temperature Data For Monday 18 August 2008

ElementValueUnits
High Temperature84 oF
Low Temperature58 oF
Average Temperature72 oF
High Humidity87 %
Low Humidity34 %
Average Humidity60 %
SourceSpringfield-Branson National Airport (SGF)

Detail Temperature Data For Monday 18 August 2008

Date / TimeTemp (F)RH (%)Dew Pt (F)Report Date / TimeSource
2008-08-18 11:52:00 80 41 54.0 2017-12-29 19:14:24.89625 Springfield-Branson National Airport (SGF)
2008-08-18 12:52:00 80 42 55.0 2017-12-29 19:14:24.89625 Springfield-Branson National Airport (SGF)
2008-08-18 13:52:00 83 38 55.0 2017-12-29 19:14:24.89625 Springfield-Branson National Airport (SGF)
2008-08-18 14:52:00 84 34 53.0 2017-12-29 19:14:24.89625 Springfield-Branson National Airport (SGF)
2008-08-18 15:52:00 83 34 52.0 2017-12-29 19:14:24.89625 Springfield-Branson National Airport (SGF)
2008-08-18 16:52:00 82 40 55.0 2017-12-29 19:14:24.89625 Springfield-Branson National Airport (SGF)
2008-08-18 17:52:00 78 45 55.0 2017-12-29 19:14:24.89625 Springfield-Branson National Airport (SGF)
2008-08-18 18:52:00 77 50 57.0 2017-12-29 19:14:24.89625 Springfield-Branson National Airport (SGF)
2008-08-18 21:52:00 70 68 59.0 2017-12-29 19:14:24.89625 Springfield-Branson National Airport (SGF)
2008-08-18 00:52:00 61 81 55.0 2017-12-29 19:14:24.89625 Springfield-Branson National Airport (SGF)
2008-08-18 01:52:00 63 73 54.0 2017-12-29 19:14:24.89625 Springfield-Branson National Airport (SGF)
2008-08-18 02:52:00 62 75 54.0 2017-12-29 19:14:24.89625 Springfield-Branson National Airport (SGF)
2008-08-18 03:52:00 59 81 53.0 2017-12-29 19:14:24.89625 Springfield-Branson National Airport (SGF)
2008-08-18 04:52:00 59 87 55.0 2017-12-29 19:14:24.89625 Springfield-Branson National Airport (SGF)
2008-08-18 05:52:00 58 87 54.0 2017-12-29 19:14:24.89625 Springfield-Branson National Airport (SGF)
2008-08-18 06:52:00 63 81 57.0 2017-12-29 19:14:24.89625 Springfield-Branson National Airport (SGF)
2008-08-18 07:52:00 69 63 56.0 2017-12-29 19:14:24.89625 Springfield-Branson National Airport (SGF)
2008-08-18 08:52:00 73 57 57.0 2017-12-29 19:14:24.89625 Springfield-Branson National Airport (SGF)
2008-08-18 09:52:00 76 50 56.0 2017-12-29 19:14:24.89625 Springfield-Branson National Airport (SGF)
2008-08-18 10:52:00 79 45 56.0 2017-12-29 19:14:24.89625 Springfield-Branson National Airport (SGF)
2008-08-18 19:52:00 72 64 59.0 2017-12-29 19:14:24.89625 Springfield-Branson National Airport (SGF)
2008-08-18 20:52:00 72 64 59.0 2017-12-29 19:14:24.89625 Springfield-Branson National Airport (SGF)
2008-08-18 22:52:00 69 68 58.0 2017-12-29 19:14:24.89625 Springfield-Branson National Airport (SGF)
2008-08-18 23:52:00 69 68 58.0 2017-12-29 19:14:24.89625 Springfield-Branson National Airport (SGF)

A total of 24 rows are displayed.